sensor_id;sensor_type;location;lat;lon;timestamp;temperature;humidity
71649;SHT31;70112;45.624;11.760;2023-09-19T00:00:20;22.20;80.18
71649;SHT31;70112;45.624;11.760;2023-09-19T00:02:52;22.19;80.13
71649;SHT31;70112;45.624;11.760;2023-09-19T00:05:22;22.18;80.20
71649;SHT31;70112;45.624;11.760;2023-09-19T00:07:52;22.16;80.27
71649;SHT31;70112;45.624;11.760;2023-09-19T00:10:22;22.17;80.27
71649;SHT31;70112;45.624;11.760;2023-09-19T00:12:52;22.16;80.10
71649;SHT31;70112;45.624;11.760;2023-09-19T00:15:20;22.15;80.11
71649;SHT31;70112;45.624;11.760;2023-09-19T00:17:49;22.12;80.07
71649;SHT31;70112;45.624;11.760;2023-09-19T00:20:17;22.12;80.02
71649;SHT31;70112;45.624;11.760;2023-09-19T00:22:44;22.09;80.00
71649;SHT31;70112;45.624;11.760;2023-09-19T00:25:10;22.05;80.06
71649;SHT31;70112;45.624;11.760;2023-09-19T00:27:39;22.02;80.09
71649;SHT31;70112;45.624;11.760;2023-09-19T00:30:08;21.98;80.13
71649;SHT31;70112;45.624;11.760;2023-09-19T00:32:45;21.93;79.94
71649;SHT31;70112;45.624;11.760;2023-09-19T00:35:15;21.88;79.83
71649;SHT31;70112;45.624;11.760;2023-09-19T00:37:41;21.85;79.97
71649;SHT31;70112;45.624;11.760;2023-09-19T00:40:08;21.82;80.08
71649;SHT31;70112;45.624;11.760;2023-09-19T00:42:40;21.78;80.16
71649;SHT31;70112;45.624;11.760;2023-09-19T00:45:12;21.76;80.35
71649;SHT31;70112;45.624;11.760;2023-09-19T00:47:44;21.76;80.42
71649;SHT31;70112;45.624;11.760;2023-09-19T00:50:13;21.74;80.46
71649;SHT31;70112;45.624;11.760;2023-09-19T00:52:42;21.70;80.40
71649;SHT31;70112;45.624;11.760;2023-09-19T00:55:09;21.66;80.39
71649;SHT31;70112;45.624;11.760;2023-09-19T00:57:37;21.62;80.28
71649;SHT31;70112;45.624;11.760;2023-09-19T01:00:04;21.60;80.21
71649;SHT31;70112;45.624;11.760;2023-09-19T01:02:33;21.57;80.27
71649;SHT31;70112;45.624;11.760;2023-09-19T01:05:00;21.55;80.39
71649;SHT31;70112;45.624;11.760;2023-09-19T01:07:27;21.55;80.40
71649;SHT31;70112;45.624;11.760;2023-09-19T01:09:58;21.53;80.48
71649;SHT31;70112;45.624;11.760;2023-09-19T01:12:40;21.50;80.54
71649;SHT31;70112;45.624;11.760;2023-09-19T01:15:21;21.50;80.59
71649;SHT31;70112;45.624;11.760;2023-09-19T01:21:11;21.44;80.46
71649;SHT31;70112;45.624;11.760;2023-09-19T01:29:45;21.35;80.70
71649;SHT31;70112;45.624;11.760;2023-09-19T01:32:14;21.33;80.70
71649;SHT31;70112;45.624;11.760;2023-09-19T01:34:47;21.28;80.62
71649;SHT31;70112;45.624;11.760;2023-09-19T01:37:14;21.26;80.50
71649;SHT31;70112;45.624;11.760;2023-09-19T01:40:04;21.22;80.52
71649;SHT31;70112;45.624;11.760;2023-09-19T01:42:58;21.21;80.54
71649;SHT31;70112;45.624;11.760;2023-09-19T01:48:40;21.15;80.51
71649;SHT31;70112;45.624;11.760;2023-09-19T01:51:18;21.13;80.58
71649;SHT31;70112;45.624;11.760;2023-09-19T01:54:12;21.11;80.60
71649;SHT31;70112;45.624;11.760;2023-09-19T01:56:48;21.09;80.69
71649;SHT31;70112;45.624;11.760;2023-09-19T01:59:23;21.08;80.70
71649;SHT31;70112;45.624;11.760;2023-09-19T02:01:55;21.07;80.75
71649;SHT31;70112;45.624;11.760;2023-09-19T02:04:21;21.05;80.80
71649;SHT31;70112;45.624;11.760;2023-09-19T02:06:47;21.04;80.80
71649;SHT31;70112;45.624;11.760;2023-09-19T02:09:13;21.03;80.79
71649;SHT31;70112;45.624;11.760;2023-09-19T02:11:42;21.00;80.70
71649;SHT31;70112;45.624;11.760;2023-09-19T02:14:08;20.97;80.57
71649;SHT31;70112;45.624;11.760;2023-09-19T02:16:34;20.93;80.57
71649;SHT31;70112;45.624;11.760;2023-09-19T02:19:00;20.90;80.68
71649;SHT31;70112;45.624;11.760;2023-09-19T02:21:30;20.89;80.76
71649;SHT31;70112;45.624;11.760;2023-09-19T02:23:55;20.89;80.81
71649;SHT31;70112;45.624;11.760;2023-09-19T02:26:21;20.86;80.83
71649;SHT31;70112;45.624;11.760;2023-09-19T02:28:49;20.86;80.84
71649;SHT31;70112;45.624;11.760;2023-09-19T02:31:15;20.82;80.86
71649;SHT31;70112;45.624;11.760;2023-09-19T02:33:41;20.80;80.80
71649;SHT31;70112;45.624;11.760;2023-09-19T02:36:08;20.75;80.76
71649;SHT31;70112;45.624;11.760;2023-09-19T02:38:35;20.71;80.70
71649;SHT31;70112;45.624;11.760;2023-09-19T02:41:02;20.69;80.72
71649;SHT31;70112;45.624;11.760;2023-09-19T02:43:28;20.66;80.73
71649;SHT31;70112;45.624;11.760;2023-09-19T02:45:54;20.63;80.71
71649;SHT31;70112;45.624;11.760;2023-09-19T02:48:19;20.60;80.76
71649;SHT31;70112;45.624;11.760;2023-09-19T02:50:46;20.58;80.76
71649;SHT31;70112;45.624;11.760;2023-09-19T02:53:14;20.55;80.80
71649;SHT31;70112;45.624;11.760;2023-09-19T02:55:40;20.54;80.89
71649;SHT31;70112;45.624;11.760;2023-09-19T02:58:06;20.51;80.97
71649;SHT31;70112;45.624;11.760;2023-09-19T03:00:39;20.52;81.00
71649;SHT31;70112;45.624;11.760;2023-09-19T03:03:07;20.52;81.04
71649;SHT31;70112;45.624;11.760;2023-09-19T03:05:33;20.51;81.08
71649;SHT31;70112;45.624;11.760;2023-09-19T03:07:59;20.51;80.97
71649;SHT31;70112;45.624;11.760;2023-09-19T03:10:26;20.49;80.91
71649;SHT31;70112;45.624;11.760;2023-09-19T03:12:53;20.46;80.98
71649;SHT31;70112;45.624;11.760;2023-09-19T03:15:19;20.44;81.00
71649;SHT31;70112;45.624;11.760;2023-09-19T03:17:46;20.44;81.09
71649;SHT31;70112;45.624;11.760;2023-09-19T03:20:13;20.44;81.12
71649;SHT31;70112;45.624;11.760;2023-09-19T03:22:42;20.42;81.19
71649;SHT31;70112;45.624;11.760;2023-09-19T03:25:09;20.43;81.23
71649;SHT31;70112;45.624;11.760;2023-09-19T03:27:39;20.44;81.20
71649;SHT31;70112;45.624;11.760;2023-09-19T03:30:05;20.44;81.20
71649;SHT31;70112;45.624;11.760;2023-09-19T03:32:36;20.43;81.20
71649;SHT31;70112;45.624;11.760;2023-09-19T03:35:02;20.43;81.20
71649;SHT31;70112;45.624;11.760;2023-09-19T03:37:32;20.44;81.20
71649;SHT31;70112;45.624;11.760;2023-09-19T03:40:00;20.44;81.22
71649;SHT31;70112;45.624;11.760;2023-09-19T03:42:30;20.45;81.21
71649;SHT31;70112;45.624;11.760;2023-09-19T03:44:56;20.46;81.17
71649;SHT31;70112;45.624;11.760;2023-09-19T03:47:22;20.44;81.04
71649;SHT31;70112;45.624;11.760;2023-09-19T03:49:47;20.42;81.00
71649;SHT31;70112;45.624;11.760;2023-09-19T03:52:13;20.39;81.00
71649;SHT31;70112;45.624;11.760;2023-09-19T03:54:40;20.37;81.01
71649;SHT31;70112;45.624;11.760;2023-09-19T03:57:06;20.37;80.99
71649;SHT31;70112;45.624;11.760;2023-09-19T03:59:32;20.35;81.00
71649;SHT31;70112;45.624;11.760;2023-09-19T04:01:58;20.35;80.97
71649;SHT31;70112;45.624;11.760;2023-09-19T04:04:24;20.32;80.96
71649;SHT31;70112;45.624;11.760;2023-09-19T04:06:50;20.28;80.96
71649;SHT31;70112;45.624;11.760;2023-09-19T04:09:16;20.27;80.90
71649;SHT31;70112;45.624;11.760;2023-09-19T04:11:42;20.25;80.81
71649;SHT31;70112;45.624;11.760;2023-09-19T04:14:07;20.25;80.80
71649;SHT31;70112;45.624;11.760;2023-09-19T04:16:33;20.23;80.80
71649;SHT31;70112;45.624;11.760;2023-09-19T04:18:58;20.20;80.89
71649;SHT31;70112;45.624;11.760;2023-09-19T04:21:24;20.17;80.98
71649;SHT31;70112;45.624;11.760;2023-09-19T04:23:49;20.17;80.92
71649;SHT31;70112;45.624;11.760;2023-09-19T04:26:15;20.16;80.90
71649;SHT31;70112;45.624;11.760;2023-09-19T04:28:41;20.14;80.90
71649;SHT31;70112;45.624;11.760;2023-09-19T04:31:09;20.12;80.81
71649;SHT31;70112;45.624;11.760;2023-09-19T04:33:35;20.11;80.79
71649;SHT31;70112;45.624;11.760;2023-09-19T04:36:01;20.08;80.78
71649;SHT31;70112;45.624;11.760;2023-09-19T04:38:28;20.05;80.88
71649;SHT31;70112;45.624;11.760;2023-09-19T04:40:57;20.04;80.90
71649;SHT31;70112;45.624;11.760;2023-09-19T04:43:24;20.03;80.90
71649;SHT31;70112;45.624;11.760;2023-09-19T04:45:50;20.01;80.90
71649;SHT31;70112;45.624;11.760;2023-09-19T04:48:16;19.99;80.87
71649;SHT31;70112;45.624;11.760;2023-09-19T04:50:41;19.97;80.89
71649;SHT31;70112;45.624;11.760;2023-09-19T04:53:08;19.96;80.89
71649;SHT31;70112;45.624;11.760;2023-09-19T04:55:33;19.93;80.89
71649;SHT31;70112;45.624;11.760;2023-09-19T04:57:59;19.90;80.89
71649;SHT31;70112;45.624;11.760;2023-09-19T05:00:24;19.88;80.91
71649;SHT31;70112;45.624;11.760;2023-09-19T05:02:54;19.86;80.90
71649;SHT31;70112;45.624;11.760;2023-09-19T05:05:23;19.84;80.93
71649;SHT31;70112;45.624;11.760;2023-09-19T05:07:50;19.85;81.00
71649;SHT31;70112;45.624;11.760;2023-09-19T05:10:16;19.85;81.05
71649;SHT31;70112;45.624;11.760;2023-09-19T05:12:43;19.88;81.07
71649;SHT31;70112;45.624;11.760;2023-09-19T05:15:12;19.88;81.13
71649;SHT31;70112;45.624;11.760;2023-09-19T05:17:39;19.90;81.20
71649;SHT31;70112;45.624;11.760;2023-09-19T05:20:05;19.92;81.26
71649;SHT31;70112;45.624;11.760;2023-09-19T05:22:49;19.93;81.29
71649;SHT31;70112;45.624;11.760;2023-09-19T05:25:31;19.95;81.30
71649;SHT31;70112;45.624;11.760;2023-09-19T05:27:58;19.97;81.29
71649;SHT31;70112;45.624;11.760;2023-09-19T05:30:27;19.96;81.24
71649;SHT31;70112;45.624;11.760;2023-09-19T05:32:54;19.96;81.29
71649;SHT31;70112;45.624;11.760;2023-09-19T05:35:21;19.94;81.36
71649;SHT31;70112;45.624;11.760;2023-09-19T05:37:48;19.95;81.41
71649;SHT31;70112;45.624;11.760;2023-09-19T05:40:17;19.96;81.50
71649;SHT31;70112;45.624;11.760;2023-09-19T05:42:43;19.99;81.55
71649;SHT31;70112;45.624;11.760;2023-09-19T05:45:09;20.02;81.59
71649;SHT31;70112;45.624;11.760;2023-09-19T05:47:41;20.03;81.66
71649;SHT31;70112;45.624;11.760;2023-09-19T05:50:08;20.05;81.70
71649;SHT31;70112;45.624;11.760;2023-09-19T05:52:37;20.08;81.77
71649;SHT31;70112;45.624;11.760;2023-09-19T05:55:06;20.11;81.80
71649;SHT31;70112;45.624;11.760;2023-09-19T05:57:36;20.13;81.89
71649;SHT31;70112;45.624;11.760;2023-09-19T06:00:07;20.16;81.90
71649;SHT31;70112;45.624;11.760;2023-09-19T06:02:38;20.19;81.95
71649;SHT31;70112;45.624;11.760;2023-09-19T06:05:05;20.24;81.99
71649;SHT31;70112;45.624;11.760;2023-09-19T06:07:35;20.31;81.99
71649;SHT31;70112;45.624;11.760;2023-09-19T06:10:03;20.40;82.00
71649;SHT31;70112;45.624;11.760;2023-09-19T06:12:33;20.47;82.00
71649;SHT31;70112;45.624;11.760;2023-09-19T06:15:04;20.55;81.94
71649;SHT31;70112;45.624;11.760;2023-09-19T06:17:31;20.62;81.89
71649;SHT31;70112;45.624;11.760;2023-09-19T06:19:56;20.67;81.82
71649;SHT31;70112;45.624;11.760;2023-09-19T06:22:22;20.75;81.80
71649;SHT31;70112;45.624;11.760;2023-09-19T06:24:49;20.82;81.74
71649;SHT31;70112;45.624;11.760;2023-09-19T06:27:15;20.89;81.68
71649;SHT31;70112;45.624;11.760;2023-09-19T06:29:40;20.97;81.66
71649;SHT31;70112;45.624;11.760;2023-09-19T06:32:09;21.05;81.59
71649;SHT31;70112;45.624;11.760;2023-09-19T06:34:35;21.15;81.49
71649;SHT31;70112;45.624;11.760;2023-09-19T06:37:03;21.23;81.38
71649;SHT31;70112;45.624;11.760;2023-09-19T06:39:31;21.31;81.32
71649;SHT31;70112;45.624;11.760;2023-09-19T06:41:57;21.38;81.26
71649;SHT31;70112;45.624;11.760;2023-09-19T06:44:23;21.46;81.17
71649;SHT31;70112;45.624;11.760;2023-09-19T06:46:50;21.55;81.06
71649;SHT31;70112;45.624;11.760;2023-09-19T06:49:16;21.65;81.01
71649;SHT31;70112;45.624;11.760;2023-09-19T06:51:42;21.74;80.90
71649;SHT31;70112;45.624;11.760;2023-09-19T06:54:09;21.83;80.80
71649;SHT31;70112;45.624;11.760;2023-09-19T06:56:35;21.93;80.67
71649;SHT31;70112;45.624;11.760;2023-09-19T06:59:01;22.02;80.56
71649;SHT31;70112;45.624;11.760;2023-09-19T07:01:27;22.11;80.46
71649;SHT31;70112;45.624;11.760;2023-09-19T07:03:53;22.20;80.32
71649;SHT31;70112;45.624;11.760;2023-09-19T07:06:19;22.27;80.19
71649;SHT31;70112;45.624;11.760;2023-09-19T07:08:45;22.35;80.07
71649;SHT31;70112;45.624;11.760;2023-09-19T07:11:11;22.42;79.94
71649;SHT31;70112;45.624;11.760;2023-09-19T07:13:37;22.49;79.84
71649;SHT31;70112;45.624;11.760;2023-09-19T07:16:04;22.56;79.68
71649;SHT31;70112;45.624;11.760;2023-09-19T07:18:29;22.63;79.55
71649;SHT31;70112;45.624;11.760;2023-09-19T07:20:57;22.69;79.42
71649;SHT31;70112;45.624;11.760;2023-09-19T07:23:29;22.75;79.28
71649;SHT31;70112;45.624;11.760;2023-09-19T07:26:00;22.82;79.08
71649;SHT31;70112;45.624;11.760;2023-09-19T07:28:27;22.90;78.92
71649;SHT31;70112;45.624;11.760;2023-09-19T07:30:53;22.98;78.75
71649;SHT31;70112;45.624;11.760;2023-09-19T07:33:19;23.06;78.62
71649;SHT31;70112;45.624;11.760;2023-09-19T07:35:48;23.14;78.56
71649;SHT31;70112;45.624;11.760;2023-09-19T07:38:13;23.24;78.55
71649;SHT31;70112;45.624;11.760;2023-09-19T07:40:39;23.36;78.49
71649;SHT31;70112;45.624;11.760;2023-09-19T07:43:05;23.47;78.27
71649;SHT31;70112;45.624;11.760;2023-09-19T07:45:31;23.63;78.04
71649;SHT31;70112;45.624;11.760;2023-09-19T07:47:57;23.75;77.79
71649;SHT31;70112;45.624;11.760;2023-09-19T07:50:23;23.98;77.53
71649;SHT31;70112;45.624;11.760;2023-09-19T07:52:51;24.34;77.13
71649;SHT31;70112;45.624;11.760;2023-09-19T07:55:17;24.73;76.55
71649;SHT31;70112;45.624;11.760;2023-09-19T07:57:51;24.97;76.16
71649;SHT31;70112;45.624;11.760;2023-09-19T08:00:18;25.01;75.97
71649;SHT31;70112;45.624;11.760;2023-09-19T08:02:43;25.11;75.53
71649;SHT31;70112;45.624;11.760;2023-09-19T08:05:09;25.25;75.52
71649;SHT31;70112;45.624;11.760;2023-09-19T08:07:43;25.44;75.23
71649;SHT31;70112;45.624;11.760;2023-09-19T08:10:14;25.68;74.91
71649;SHT31;70112;45.624;11.760;2023-09-19T08:12:42;25.90;74.41
71649;SHT31;70112;45.624;11.760;2023-09-19T08:15:20;26.09;73.90
71649;SHT31;70112;45.624;11.760;2023-09-19T08:17:45;26.27;73.30
71649;SHT31;70112;45.624;11.760;2023-09-19T08:20:12;26.47;72.91
71649;SHT31;70112;45.624;11.760;2023-09-19T08:22:52;26.67;72.40
71649;SHT31;70112;45.624;11.760;2023-09-19T08:25:21;26.87;72.15
71649;SHT31;70112;45.624;11.760;2023-09-19T08:27:50;27.06;71.80
71649;SHT31;70112;45.624;11.760;2023-09-19T08:30:16;27.20;71.21
71649;SHT31;70112;45.624;11.760;2023-09-19T08:32:49;27.34;70.71
71649;SHT31;70112;45.624;11.760;2023-09-19T08:35:15;27.45;70.30
71649;SHT31;70112;45.624;11.760;2023-09-19T08:37:44;27.56;69.82
71649;SHT31;70112;45.624;11.760;2023-09-19T08:40:13;27.69;69.40
71649;SHT31;70112;45.624;11.760;2023-09-19T08:42:51;27.78;69.06
71649;SHT31;70112;45.624;11.760;2023-09-19T08:45:21;27.86;68.90
71649;SHT31;70112;45.624;11.760;2023-09-19T08:50:43;28.07;67.92
71649;SHT31;70112;45.624;11.760;2023-09-19T08:53:16;28.12;67.39
71649;SHT31;70112;45.624;11.760;2023-09-19T08:55:48;28.19;67.01
71649;SHT31;70112;45.624;11.760;2023-09-19T08:58:19;28.23;66.75
71649;SHT31;70112;45.624;11.760;2023-09-19T09:00:47;28.29;66.63
71649;SHT31;70112;45.624;11.760;2023-09-19T09:03:15;28.35;66.33
71649;SHT31;70112;45.624;11.760;2023-09-19T09:05:44;28.41;66.24
71649;SHT31;70112;45.624;11.760;2023-09-19T09:08:12;28.33;65.98
71649;SHT31;70112;45.624;11.760;2023-09-19T09:10:39;28.21;65.83
71649;SHT31;70112;45.624;11.760;2023-09-19T09:13:05;28.18;65.83
71649;SHT31;70112;45.624;11.760;2023-09-19T09:15:31;28.20;65.87
71649;SHT31;70112;45.624;11.760;2023-09-19T09:18:02;28.27;65.57
71649;SHT31;70112;45.624;11.760;2023-09-19T09:20:28;28.32;65.09
71649;SHT31;70112;45.624;11.760;2023-09-19T09:22:54;28.34;64.80
71649;SHT31;70112;45.624;11.760;2023-09-19T09:25:25;28.38;64.79
71649;SHT31;70112;45.624;11.760;2023-09-19T09:28:21;28.45;64.79
71649;SHT31;70112;45.624;11.760;2023-09-19T09:30:49;28.52;64.78
71649;SHT31;70112;45.624;11.760;2023-09-19T09:33:16;28.57;64.45
71649;SHT31;70112;45.624;11.760;2023-09-19T09:38:24;28.63;63.86
71649;SHT31;70112;45.624;11.760;2023-09-19T09:40:57;28.67;63.60
71649;SHT31;70112;45.624;11.760;2023-09-19T09:43:35;28.70;63.28
71649;SHT31;70112;45.624;11.760;2023-09-19T09:46:12;28.73;63.05
71649;SHT31;70112;45.624;11.760;2023-09-19T09:48:47;28.73;62.64
71649;SHT31;70112;45.624;11.760;2023-09-19T09:51:37;28.72;62.16
71649;SHT31;70112;45.624;11.760;2023-09-19T09:54:14;28.72;62.08
71649;SHT31;70112;45.624;11.760;2023-09-19T09:56:57;28.80;62.20
71649;SHT31;70112;45.624;11.760;2023-09-19T10:02:30;28.92;62.18
71649;SHT31;70112;45.624;11.760;2023-09-19T10:05:15;28.94;61.89
71649;SHT31;70112;45.624;11.760;2023-09-19T10:07:45;29.00;61.64
71649;SHT31;70112;45.624;11.760;2023-09-19T10:10:32;29.06;61.82
71649;SHT31;70112;45.624;11.760;2023-09-19T10:13:10;29.08;61.51
71649;SHT31;70112;45.624;11.760;2023-09-19T10:15:40;29.00;61.23
71649;SHT31;70112;45.624;11.760;2023-09-19T10:18:14;28.88;61.12
71649;SHT31;70112;45.624;11.760;2023-09-19T10:20:43;28.78;61.20
71649;SHT31;70112;45.624;11.760;2023-09-19T10:23:11;28.67;60.98
71649;SHT31;70112;45.624;11.760;2023-09-19T10:25:41;28.58;60.91
71649;SHT31;70112;45.624;11.760;2023-09-19T10:28:09;28.52;61.02
71649;SHT31;70112;45.624;11.760;2023-09-19T10:30:38;28.45;61.06
71649;SHT31;70112;45.624;11.760;2023-09-19T10:33:12;28.36;61.27
71649;SHT31;70112;45.624;11.760;2023-09-19T10:35:44;28.30;61.35
71649;SHT31;70112;45.624;11.760;2023-09-19T10:38:12;28.25;61.79
71649;SHT31;70112;45.624;11.760;2023-09-19T10:40:44;28.23;61.70
71649;SHT31;70112;45.624;11.760;2023-09-19T10:43:15;28.25;61.80
71649;SHT31;70112;45.624;11.760;2023-09-19T10:45:46;28.25;61.63
71649;SHT31;70112;45.624;11.760;2023-09-19T10:48:18;28.23;61.44
71649;SHT31;70112;45.624;11.760;2023-09-19T10:53:29;28.22;61.54
71649;SHT31;70112;45.624;11.760;2023-09-19T10:56:37;28.23;61.40
71649;SHT31;70112;45.624;11.760;2023-09-19T10:59:16;28.20;61.46
71649;SHT31;70112;45.624;11.760;2023-09-19T11:01:45;28.22;61.88
71649;SHT31;70112;45.624;11.760;2023-09-19T11:07:06;28.26;61.29
71649;SHT31;70112;45.624;11.760;2023-09-19T11:09:47;28.25;60.80
71649;SHT31;70112;45.624;11.760;2023-09-19T11:14:54;28.25;61.05
71649;SHT31;70112;45.624;11.760;2023-09-19T11:36:01;28.25;60.61
71649;SHT31;70112;45.624;11.760;2023-09-19T11:43:45;28.32;60.15
71649;SHT31;70112;45.624;11.760;2023-09-19T11:46:11;28.32;59.82
71649;SHT31;70112;45.624;11.760;2023-09-19T11:48:41;28.30;59.75
71649;SHT31;70112;45.624;11.760;2023-09-19T11:51:13;28.32;60.10
71649;SHT31;70112;45.624;11.760;2023-09-19T11:53:45;28.35;60.09
71649;SHT31;70112;45.624;11.760;2023-09-19T11:56:15;28.36;59.47
71649;SHT31;70112;45.624;11.760;2023-09-19T11:58:45;28.34;59.24
71649;SHT31;70112;45.624;11.760;2023-09-19T12:01:14;28.32;59.28
71649;SHT31;70112;45.624;11.760;2023-09-19T12:03:53;28.32;59.17
71649;SHT31;70112;45.624;11.760;2023-09-19T12:06:22;28.28;58.76
71649;SHT31;70112;45.624;11.760;2023-09-19T12:08:50;28.27;58.91
71649;SHT31;70112;45.624;11.760;2023-09-19T12:11:19;28.26;58.92
71649;SHT31;70112;45.624;11.760;2023-09-19T12:13:48;28.28;58.99
71649;SHT31;70112;45.624;11.760;2023-09-19T12:16:15;28.31;59.24
71649;SHT31;70112;45.624;11.760;2023-09-19T12:18:47;28.35;59.19
71649;SHT31;70112;45.624;11.760;2023-09-19T12:21:31;28.36;59.32
71649;SHT31;70112;45.624;11.760;2023-09-19T12:23:58;28.37;59.67
71649;SHT31;70112;45.624;11.760;2023-09-19T12:26:29;28.40;59.72
71649;SHT31;70112;45.624;11.760;2023-09-19T12:29:03;28.43;59.54
71649;SHT31;70112;45.624;11.760;2023-09-19T12:31:30;28.45;59.28
71649;SHT31;70112;45.624;11.760;2023-09-19T12:34:01;28.46;59.60
71649;SHT31;70112;45.624;11.760;2023-09-19T12:36:27;28.50;58.86
71649;SHT31;70112;45.624;11.760;2023-09-19T12:38:58;28.50;58.66
71649;SHT31;70112;45.624;11.760;2023-09-19T12:41:24;28.52;58.41
71649;SHT31;70112;45.624;11.760;2023-09-19T12:43:51;28.54;58.17
71649;SHT31;70112;45.624;11.760;2023-09-19T12:46:23;28.55;58.48
71649;SHT31;70112;45.624;11.760;2023-09-19T12:49:14;28.56;58.50
71649;SHT31;70112;45.624;11.760;2023-09-19T12:51:45;28.51;57.89
71649;SHT31;70112;45.624;11.760;2023-09-19T12:54:12;28.45;57.84
71649;SHT31;70112;45.624;11.760;2023-09-19T12:56:45;28.42;58.34
71649;SHT31;70112;45.624;11.760;2023-09-19T12:59:14;28.37;58.04
71649;SHT31;70112;45.624;11.760;2023-09-19T13:01:41;28.34;57.76
71649;SHT31;70112;45.624;11.760;2023-09-19T13:06:47;28.32;57.94
71649;SHT31;70112;45.624;11.760;2023-09-19T13:09:14;28.31;57.84
71649;SHT31;70112;45.624;11.760;2023-09-19T13:11:42;28.28;57.66
71649;SHT31;70112;45.624;11.760;2023-09-19T13:16:57;28.20;57.56
71649;SHT31;70112;45.624;11.760;2023-09-19T13:19:37;28.14;57.20
71649;SHT31;70112;45.624;11.760;2023-09-19T13:22:05;28.08;57.27
71649;SHT31;70112;45.624;11.760;2023-09-19T13:25:29;27.99;57.24
71649;SHT31;70112;45.624;11.760;2023-09-19T13:27:56;27.95;57.28
71649;SHT31;70112;45.624;11.760;2023-09-19T13:30:23;27.91;57.26
71649;SHT31;70112;45.624;11.760;2023-09-19T13:32:50;27.88;57.38
71649;SHT31;70112;45.624;11.760;2023-09-19T13:35:17;27.86;57.40
71649;SHT31;70112;45.624;11.760;2023-09-19T13:37:43;27.87;57.15
71649;SHT31;70112;45.624;11.760;2023-09-19T13:40:14;27.88;56.77
71649;SHT31;70112;45.624;11.760;2023-09-19T13:42:41;27.87;56.46
71649;SHT31;70112;45.624;11.760;2023-09-19T13:45:07;27.87;56.12
71649;SHT31;70112;45.624;11.760;2023-09-19T13:47:42;27.86;56.10
71649;SHT31;70112;45.624;11.760;2023-09-19T13:50:08;27.84;55.86
71649;SHT31;70112;45.624;11.760;2023-09-19T13:52:34;27.82;55.58
